createdAt,value
2019-04-16T00:00:34.105Z,0.00
2019-04-16T00:01:34.092Z,0.00
2019-04-16T00:02:34.134Z,0.00
2019-04-16T00:03:34.091Z,0.00
2019-04-16T00:04:34.063Z,0.00
2019-04-16T00:05:34.103Z,0.00
2019-04-16T00:06:34.043Z,0.00
2019-04-16T00:07:34.025Z,0.00
2019-04-16T00:08:34.014Z,0.00
2019-04-16T00:09:34.004Z,0.00
2019-04-16T00:10:34.058Z,0.00
2019-04-16T00:11:33.975Z,0.00
2019-04-16T00:12:33.977Z,0.00
2019-04-16T00:13:33.976Z,0.00
2019-04-16T00:14:33.944Z,0.00
2019-04-16T00:15:33.984Z,0.00
2019-04-16T00:16:33.986Z,0.00
2019-04-16T00:17:33.914Z,0.00
2019-04-16T00:18:33.974Z,0.00
2019-04-16T00:19:34.725Z,0.00
2019-04-16T00:20:36.698Z,0.00
2019-04-16T00:21:33.866Z,0.00
2019-04-16T00:22:33.918Z,0.00
2019-04-16T00:23:33.854Z,0.00
2019-04-16T00:24:33.844Z,0.00
2019-04-16T00:25:33.825Z,0.00
2019-04-16T00:26:33.875Z,0.00
2019-04-16T00:27:33.807Z,0.00
2019-04-16T00:28:33.794Z,0.00
2019-04-16T00:29:33.857Z,0.00
2019-04-16T00:30:35.797Z,0.00
2019-04-16T00:31:34.422Z,0.00
2019-04-16T00:32:33.748Z,0.00
2019-04-16T00:33:33.746Z,0.00
2019-04-16T00:34:33.802Z,0.00
2019-04-16T00:35:33.724Z,0.00
2019-04-16T00:36:33.708Z,0.00
2019-04-16T00:37:33.693Z,0.00
2019-04-16T00:38:40.651Z,0.00
2019-04-16T00:39:34.738Z,0.00
2019-04-16T00:40:33.665Z,0.00
2019-04-16T00:41:33.645Z,0.00
2019-04-16T00:42:33.735Z,0.00
2019-04-16T00:43:33.647Z,0.00
2019-04-16T00:44:33.625Z,0.00
2019-04-16T00:45:33.605Z,0.00
2019-04-16T00:46:33.596Z,0.00
2019-04-16T00:47:33.597Z,0.00
2019-04-16T00:48:33.638Z,0.00
2019-04-16T00:49:33.565Z,0.00
2019-04-16T00:50:33.545Z,0.00
2019-04-16T00:51:33.536Z,0.00
2019-04-16T00:52:36.726Z,0.00
2019-04-16T00:53:33.576Z,0.00
2019-04-16T00:54:33.506Z,0.00
2019-04-16T00:55:33.497Z,0.00
2019-04-16T00:56:33.486Z,0.00
2019-04-16T00:57:33.475Z,0.00
2019-04-16T00:58:33.527Z,0.00
2019-04-16T00:59:33.455Z,0.00
2019-04-16T01:00:33.445Z,0.00
2019-04-16T01:01:33.427Z,0.00
2019-04-16T01:02:33.425Z,0.00
2019-04-16T01:03:33.429Z,0.00
2019-04-16T01:04:33.489Z,0.00
2019-04-16T01:05:35.259Z,0.00
2019-04-16T01:06:33.389Z,0.00
2019-04-16T01:07:33.375Z,0.00
2019-04-16T01:08:33.355Z,0.00
2019-04-16T01:09:33.376Z,0.00
2019-04-16T01:10:33.336Z,0.00
2019-04-16T01:11:33.329Z,0.00
2019-04-16T01:12:33.314Z,0.00
2019-04-16T01:13:33.296Z,0.00
2019-04-16T01:14:33.331Z,0.00
2019-04-16T01:15:33.302Z,0.00
2019-04-16T01:16:33.613Z,0.00
2019-04-16T01:17:33.440Z,0.00
2019-04-16T01:18:33.255Z,0.00
2019-04-16T01:19:33.239Z,0.00
2019-04-16T01:20:33.295Z,0.00
2019-04-16T01:21:33.215Z,0.00
2019-04-16T01:22:33.205Z,0.00
2019-04-16T01:23:33.201Z,0.00
2019-04-16T01:24:33.176Z,0.00
2019-04-16T01:25:33.180Z,0.00
2019-04-16T01:26:33.237Z,0.00
2019-04-16T01:27:33.167Z,0.00
2019-04-16T01:28:33.158Z,0.00
2019-04-16T01:29:33.854Z,0.00
2019-04-16T01:30:36.304Z,0.00
2019-04-16T01:31:33.107Z,0.00
2019-04-16T01:32:33.156Z,0.00
2019-04-16T01:33:33.076Z,0.00
2019-04-16T01:34:33.067Z,0.00
2019-04-16T01:35:33.055Z,0.00
2019-04-16T01:36:33.059Z,0.00
2019-04-16T01:37:33.090Z,0.00
2019-04-16T01:38:33.026Z,0.00
2019-04-16T01:39:33.031Z,0.00
2019-04-16T01:40:33.006Z,0.00
2019-04-16T01:41:33.064Z,0.00
2019-04-16T01:42:32.994Z,0.00
2019-04-16T01:43:32.976Z,0.00
2019-04-16T01:44:32.980Z,0.00
2019-04-16T01:45:32.976Z,0.00
2019-04-16T01:46:33.610Z,0.00
2019-04-16T01:47:35.941Z,0.00
2019-04-16T01:48:33.038Z,0.00
2019-04-16T01:49:32.907Z,0.00
2019-04-16T01:50:32.895Z,0.00
2019-04-16T01:51:32.884Z,0.00
2019-04-16T01:52:32.875Z,0.00
2019-04-16T01:53:32.869Z,0.00
2019-04-16T01:54:32.936Z,0.00
2019-04-16T01:55:32.845Z,0.00
2019-04-16T01:56:32.834Z,0.00
2019-04-16T01:57:32.826Z,0.00
2019-04-16T01:58:33.856Z,0.00
2019-04-16T01:59:35.627Z,0.00
2019-04-16T02:00:32.850Z,0.00
2019-04-16T02:01:32.836Z,0.00
2019-04-16T02:02:32.757Z,0.00
2019-04-16T02:03:32.757Z,0.00
2019-04-16T02:04:32.816Z,0.00
2019-04-16T02:05:32.726Z,0.00
2019-04-16T02:06:32.726Z,0.00
2019-04-16T02:07:32.706Z,0.00
2019-04-16T02:08:32.705Z,0.00
2019-04-16T02:09:34.742Z,0.00
2019-04-16T02:10:32.759Z,0.00
2019-04-16T02:11:32.666Z,0.00
2019-04-16T02:12:32.677Z,0.00
2019-04-16T02:13:32.646Z,0.00
2019-04-16T02:14:32.636Z,0.00
2019-04-16T02:15:32.629Z,0.00
2019-04-16T02:16:32.646Z,0.00
2019-04-16T02:17:32.659Z,0.00
2019-04-16T02:18:32.586Z,0.00
2019-04-16T02:19:33.497Z,0.00
2019-04-16T02:20:32.580Z,0.00
2019-04-16T02:21:32.556Z,0.00
2019-04-16T02:22:32.548Z,0.00
2019-04-16T02:23:32.596Z,0.00
2019-04-16T02:24:32.530Z,0.00
2019-04-16T02:25:32.507Z,0.00
2019-04-16T02:26:32.498Z,0.00
2019-04-16T02:27:32.576Z,0.00
2019-04-16T02:28:32.477Z,0.00
2019-04-16T02:29:32.475Z,0.00
2019-04-16T02:30:37.340Z,0.00
2019-04-16T02:31:33.446Z,0.00
2019-04-16T02:32:32.438Z,0.00
2019-04-16T02:33:32.491Z,0.00
2019-04-16T02:34:32.418Z,0.00
2019-04-16T02:35:32.417Z,0.00
2019-04-16T02:36:32.398Z,0.00
2019-04-16T02:37:36.185Z,0.00
2019-04-16T02:38:33.450Z,0.00
2019-04-16T02:39:47.835Z,0.00
2019-04-16T02:40:33.347Z,0.00
2019-04-16T02:41:32.356Z,0.00
2019-04-16T02:42:32.374Z,0.00
2019-04-16T02:43:39.623Z,0.00
2019-04-16T02:44:33.368Z,0.00
2019-04-16T02:45:32.347Z,0.00
2019-04-16T02:46:32.843Z,0.00
2019-04-16T02:47:32.299Z,0.00
2019-04-16T02:48:32.258Z,0.00
2019-04-16T02:49:32.247Z,0.00
2019-04-16T02:50:32.388Z,0.00
2019-04-16T02:51:32.229Z,0.00
2019-04-16T02:52:32.221Z,0.00
2019-04-16T02:53:32.218Z,0.00
2019-04-16T02:54:34.004Z,0.00
2019-04-16T02:55:32.209Z,0.00
2019-04-16T02:56:32.177Z,0.00
2019-04-16T02:57:32.168Z,0.00
2019-04-16T02:58:34.438Z,0.00
2019-04-16T02:59:32.139Z,0.00
2019-04-16T03:00:32.189Z,0.00
2019-04-16T03:01:32.194Z,0.00
2019-04-16T03:02:32.106Z,0.00
2019-04-16T03:03:32.106Z,0.00
2019-04-16T03:04:32.087Z,0.00
2019-04-16T03:05:32.100Z,0.00
2019-04-16T03:06:32.613Z,0.00
2019-04-16T03:07:32.766Z,0.00
2019-04-16T03:08:33.400Z,0.00
2019-04-16T03:09:32.037Z,0.00
2019-04-16T03:10:32.017Z,0.00
2019-04-16T03:11:32.101Z,0.00
2019-04-16T03:12:32.023Z,0.00
2019-04-16T03:13:31.989Z,0.00
2019-04-16T03:14:31.977Z,0.00
2019-04-16T03:15:33.754Z,0.00
2019-04-16T03:16:31.968Z,0.00
2019-04-16T03:17:32.007Z,0.00
2019-04-16T03:18:31.957Z,0.00
2019-04-16T03:19:31.940Z,0.00
2019-04-16T03:20:31.916Z,0.00
2019-04-16T03:21:31.911Z,0.00
2019-04-16T03:22:33.430Z,0.00
2019-04-16T03:23:36.666Z,0.00
2019-04-16T03:24:32.878Z,0.00
2019-04-16T03:25:31.873Z,0.00
2019-04-16T03:26:31.849Z,0.00
2019-04-16T03:27:31.867Z,0.00
2019-04-16T03:28:31.859Z,0.00
2019-04-16T03:29:31.828Z,0.00
2019-04-16T03:30:40.343Z,0.00
2019-04-16T03:31:32.799Z,0.00
2019-04-16T03:32:35.499Z,0.00
2019-04-16T03:33:31.778Z,0.00
2019-04-16T03:34:31.825Z,0.00
2019-04-16T03:35:31.757Z,0.00
2019-04-16T03:36:31.746Z,0.00
2019-04-16T03:37:32.986Z,0.00
2019-04-16T03:38:36.721Z,0.00
2019-04-16T03:39:32.766Z,0.00
2019-04-16T03:40:31.706Z,0.00
2019-04-16T03:41:31.687Z,0.00
2019-04-16T03:42:31.676Z,0.00
2019-04-16T03:43:32.796Z,0.00
2019-04-16T03:44:33.537Z,0.00
2019-04-16T03:45:31.660Z,0.00
2019-04-16T03:46:31.662Z,0.00
2019-04-16T03:47:31.629Z,0.00
2019-04-16T03:48:31.612Z,0.00
2019-04-16T03:49:31.669Z,0.00
2019-04-16T03:50:32.222Z,0.00
2019-04-16T03:51:32.546Z,0.00
2019-04-16T03:52:31.598Z,0.00
2019-04-16T03:53:31.618Z,0.00
2019-04-16T03:54:31.557Z,0.00
2019-04-16T03:55:31.627Z,0.00
2019-04-16T03:56:32.083Z,0.00
2019-04-16T03:57:33.151Z,0.00
2019-04-16T03:58:31.506Z,0.00
2019-04-16T03:59:31.496Z,0.00
2019-04-16T04:00:31.568Z,0.00
2019-04-16T04:01:31.476Z,0.00
2019-04-16T04:02:31.457Z,0.00
2019-04-16T04:03:31.457Z,0.00
2019-04-16T04:04:31.446Z,0.00
2019-04-16T04:05:31.447Z,0.00
2019-04-16T04:06:31.437Z,0.00
2019-04-16T04:07:31.441Z,0.00
2019-04-16T04:08:31.416Z,0.00
2019-04-16T04:09:31.386Z,0.00
2019-04-16T04:10:36.792Z,0.00
2019-04-16T04:11:32.366Z,0.00
2019-04-16T04:12:31.377Z,0.00
2019-04-16T04:13:31.379Z,0.00
2019-04-16T04:14:31.336Z,0.00
2019-04-16T04:15:31.316Z,0.00
2019-04-16T04:16:33.522Z,0.00
2019-04-16T04:17:31.324Z,0.00
2019-04-16T04:18:31.335Z,5.62
2019-04-16T04:19:31.276Z,5.62
2019-04-16T04:20:31.277Z,5.62
2019-04-16T04:21:31.256Z,5.62
2019-04-16T04:22:31.261Z,5.62
2019-04-16T04:23:31.269Z,5.62
2019-04-16T04:24:32.112Z,11.25
2019-04-16T04:25:36.053Z,11.25
2019-04-16T04:26:32.198Z,11.25
2019-04-16T04:27:31.195Z,11.25
2019-04-16T04:28:31.178Z,11.25
2019-04-16T04:29:31.207Z,16.88
2019-04-16T04:30:31.188Z,16.88
2019-04-16T04:31:32.300Z,16.88
2019-04-16T04:32:32.494Z,22.50
2019-04-16T04:33:31.135Z,22.50
2019-04-16T04:34:31.116Z,22.50
2019-04-16T04:35:31.141Z,28.12
2019-04-16T04:36:31.098Z,28.12
2019-04-16T04:37:31.973Z,28.12
2019-04-16T04:38:33.693Z,33.75
2019-04-16T04:39:32.064Z,33.75
2019-04-16T04:40:43.688Z,33.75
2019-04-16T04:41:32.036Z,39.38
2019-04-16T04:42:31.047Z,39.38
2019-04-16T04:43:31.927Z,45.00
2019-04-16T04:44:33.591Z,45.00
2019-04-16T04:45:31.998Z,50.62
2019-04-16T04:46:30.984Z,50.62
2019-04-16T04:47:31.018Z,50.62
2019-04-16T04:48:30.966Z,56.25
2019-04-16T04:49:31.170Z,56.25
2019-04-16T04:50:32.417Z,61.88
2019-04-16T04:51:30.955Z,61.88
2019-04-16T04:52:30.939Z,67.50
2019-04-16T04:53:30.934Z,67.50
2019-04-16T04:54:30.896Z,73.12
2019-04-16T04:55:30.894Z,73.12
2019-04-16T04:56:30.889Z,78.75
2019-04-16T04:57:31.894Z,78.75
2019-04-16T04:58:33.716Z,84.38
2019-04-16T04:59:30.859Z,84.38
2019-04-16T05:00:30.834Z,90.00
2019-04-16T05:01:30.826Z,90.00
2019-04-16T05:02:30.819Z,95.62
2019-04-16T05:03:30.835Z,95.62
2019-04-16T05:04:30.805Z,101.25
2019-04-16T05:05:30.785Z,101.25
2019-04-16T05:06:30.774Z,106.88
2019-04-16T05:07:30.767Z,106.88
2019-04-16T05:08:30.747Z,112.50
2019-04-16T05:09:35.367Z,112.50
2019-04-16T05:10:31.724Z,118.12
2019-04-16T05:11:30.718Z,123.75
2019-04-16T05:12:30.696Z,123.75
2019-04-16T05:13:30.695Z,129.38
2019-04-16T05:14:30.699Z,135.00
2019-04-16T05:15:30.745Z,135.00
2019-04-16T05:16:31.582Z,140.62
2019-04-16T05:17:30.678Z,140.62
2019-04-16T05:18:30.645Z,140.62
2019-04-16T05:19:30.635Z,146.25
2019-04-16T05:20:30.677Z,146.25
2019-04-16T05:21:30.605Z,151.88
2019-04-16T05:22:32.999Z,151.88
2019-04-16T05:23:30.589Z,157.50
2019-04-16T05:24:30.644Z,157.50
2019-04-16T05:25:34.162Z,163.12
2019-04-16T05:26:30.545Z,163.12
2019-04-16T05:27:30.545Z,168.75
2019-04-16T05:28:30.535Z,168.75
2019-04-16T05:29:30.525Z,174.38
2019-04-16T05:30:30.549Z,174.38
2019-04-16T05:31:31.197Z,180.00
2019-04-16T05:32:34.032Z,180.00
2019-04-16T05:33:30.475Z,185.62
2019-04-16T05:34:30.463Z,185.62
2019-04-16T05:35:30.468Z,191.25
2019-04-16T05:36:30.450Z,191.25
2019-04-16T05:37:30.485Z,196.88
2019-04-16T05:38:30.425Z,196.88
2019-04-16T05:39:30.405Z,202.50
2019-04-16T05:40:34.369Z,202.50
2019-04-16T05:41:30.385Z,202.50
2019-04-16T05:42:30.435Z,208.12
2019-04-16T05:43:30.933Z,208.12
2019-04-16T05:44:32.851Z,208.12
2019-04-16T05:45:30.408Z,208.12
2019-04-16T05:46:30.344Z,213.75
2019-04-16T05:47:30.405Z,213.75
2019-04-16T05:48:30.313Z,219.38
2019-04-16T05:49:30.319Z,219.38
2019-04-16T05:50:30.298Z,225.00
2019-04-16T05:51:31.480Z,225.00
2019-04-16T05:52:32.331Z,225.00
2019-04-16T05:53:31.318Z,230.62
2019-04-16T05:54:30.259Z,230.62
2019-04-16T05:55:30.235Z,236.25
2019-04-16T05:56:30.225Z,236.25
2019-04-16T05:57:30.215Z,241.88
2019-04-16T05:58:31.012Z,241.88
2019-04-16T05:59:33.576Z,241.88
2019-04-16T06:00:30.184Z,247.50
2019-04-16T06:01:30.166Z,247.50
2019-04-16T06:02:30.155Z,253.12
2019-04-16T06:03:30.236Z,253.12
2019-04-16T06:04:30.145Z,258.75
2019-04-16T06:05:30.127Z,253.12
2019-04-16T06:06:31.788Z,258.75
2019-04-16T06:07:30.173Z,258.75
2019-04-16T06:08:30.108Z,264.38
2019-04-16T06:09:30.205Z,270.00
2019-04-16T06:10:30.065Z,270.00
2019-04-16T06:11:35.710Z,275.62
2019-04-16T06:12:32.555Z,281.25
2019-04-16T06:13:30.060Z,286.88
2019-04-16T06:14:30.026Z,286.88
2019-04-16T06:15:30.085Z,292.50
2019-04-16T06:16:31.157Z,326.25
2019-04-16T06:17:32.223Z,433.12
2019-04-16T06:18:29.985Z,517.50
2019-04-16T06:19:29.975Z,551.25
2019-04-16T06:20:29.963Z,568.12
2019-04-16T06:21:29.954Z,568.12
2019-04-16T06:22:30.259Z,579.38
2019-04-16T06:23:32.646Z,596.25
2019-04-16T06:24:32.401Z,607.50
2019-04-16T06:25:30.906Z,618.75
2019-04-16T06:26:29.898Z,630.00
2019-04-16T06:27:29.946Z,641.25
2019-04-16T06:28:36.928Z,658.12
2019-04-16T06:29:29.878Z,669.38
2019-04-16T06:30:32.754Z,669.38
2019-04-16T06:31:29.857Z,680.62
2019-04-16T06:32:29.920Z,697.50
2019-04-16T06:33:29.828Z,720.00
2019-04-16T06:34:29.808Z,725.62
2019-04-16T06:35:42.459Z,753.75
2019-04-16T06:36:30.810Z,753.75
2019-04-16T06:37:29.779Z,759.38
2019-04-16T06:38:29.778Z,787.50
2019-04-16T06:39:30.627Z,821.25
2019-04-16T06:40:32.630Z,826.88
2019-04-16T06:41:40.803Z,798.75
2019-04-16T06:42:30.728Z,810.00
2019-04-16T06:43:29.773Z,815.62
2019-04-16T06:44:32.113Z,821.25
2019-04-16T06:45:36.537Z,838.12
2019-04-16T06:46:30.689Z,877.50
2019-04-16T06:47:29.683Z,894.38
2019-04-16T06:48:29.739Z,900.00
2019-04-16T06:49:29.725Z,900.00
2019-04-16T06:50:32.851Z,922.50
2019-04-16T06:51:31.791Z,945.00
2019-04-16T06:52:29.620Z,945.00
2019-04-16T06:53:30.579Z,950.62
2019-04-16T06:54:32.813Z,950.62
2019-04-16T06:55:29.589Z,950.62
2019-04-16T06:56:29.629Z,984.38
2019-04-16T06:57:29.569Z,995.62
2019-04-16T06:58:29.559Z,1001.25
2019-04-16T06:59:30.821Z,1006.88
2019-04-16T07:00:34.064Z,990.00
2019-04-16T07:01:30.510Z,1023.75
2019-04-16T07:02:29.549Z,1046.25
2019-04-16T07:03:32.426Z,1063.12
2019-04-16T07:04:30.837Z,1080.00
2019-04-16T07:05:32.954Z,1096.88
2019-04-16T07:06:29.473Z,1108.12
2019-04-16T07:07:39.593Z,1130.62
2019-04-16T07:08:37.481Z,1130.62
2019-04-16T07:09:40.892Z,1158.75
2019-04-16T07:10:43.792Z,1170.00
2019-04-16T07:11:30.410Z,1170.00
2019-04-16T07:12:29.456Z,1170.00
2019-04-16T07:13:29.383Z,1125.00
2019-04-16T07:14:29.445Z,1170.00
2019-04-16T07:15:29.402Z,1215.00
2019-04-16T07:16:29.361Z,1305.00
2019-04-16T07:17:32.916Z,1344.38
2019-04-16T07:18:29.332Z,1350.00
2019-04-16T07:19:29.389Z,1389.38
2019-04-16T07:20:29.374Z,1400.62
2019-04-16T07:21:29.320Z,1406.25
2019-04-16T07:22:29.291Z,1428.75
2019-04-16T07:23:29.400Z,1400.62
2019-04-16T07:24:30.687Z,1383.75
2019-04-16T07:25:30.042Z,1400.62
2019-04-16T07:26:29.328Z,1434.38
2019-04-16T07:27:29.349Z,1411.88
2019-04-16T07:28:29.323Z,1378.12
2019-04-16T07:30:30.362Z,1366.88
2019-04-16T07:31:33.526Z,1350.00
2019-04-16T07:32:30.184Z,1378.12
2019-04-16T07:33:29.171Z,1378.12
2019-04-16T07:34:29.192Z,1366.88
2019-04-16T07:34:34.799Z,1383.75
2019-04-16T07:35:29.147Z,1344.38
2019-04-16T07:36:29.213Z,1372.50
2019-04-16T07:37:32.880Z,1395.00
2019-04-16T07:38:29.115Z,1411.88
2019-04-16T07:39:29.653Z,1378.12
2019-04-16T07:40:29.106Z,1383.75
2019-04-16T07:41:29.077Z,1372.50
2019-04-16T07:42:29.144Z,1406.25
2019-04-16T07:43:31.266Z,1417.50
2019-04-16T07:44:29.046Z,1451.25
2019-04-16T07:45:29.044Z,1468.12
2019-04-16T07:46:29.115Z,1468.12
2019-04-16T07:47:29.098Z,1513.12
2019-04-16T07:48:29.013Z,1524.38
2019-04-16T07:49:29.004Z,1541.25
2019-04-16T07:50:29.536Z,1591.88
2019-04-16T07:51:28.967Z,1631.25
2019-04-16T07:52:29.038Z,1648.12
2019-04-16T07:53:28.949Z,1614.38
2019-04-16T07:54:28.938Z,1558.12
2019-04-16T07:55:28.928Z,1558.12
2019-04-16T07:56:28.916Z,1726.88
2019-04-16T07:57:28.908Z,1861.88
2019-04-16T07:58:28.959Z,1794.38
2019-04-16T07:59:32.003Z,1749.38
2019-04-16T08:00:28.874Z,1828.12
2019-04-16T08:01:28.871Z,1878.75
2019-04-16T08:02:28.875Z,1906.88
2019-04-16T08:03:28.899Z,1935.00
2019-04-16T08:04:29.455Z,1890.00
2019-04-16T08:05:28.831Z,1923.75
2019-04-16T08:06:28.825Z,1929.38
2019-04-16T08:07:28.798Z,1906.88
2019-04-16T08:08:28.911Z,1940.62
2019-04-16T08:09:29.913Z,1980.00
2019-04-16T08:10:28.799Z,1884.38
2019-04-16T08:11:28.758Z,1906.88
2019-04-16T08:12:30.318Z,1929.38
2019-04-16T08:13:33.345Z,1918.12
2019-04-16T08:14:29.801Z,1985.62
2019-04-16T08:15:28.710Z,2025.00
2019-04-16T08:16:28.721Z,2047.50
2019-04-16T08:17:28.688Z,2086.88
2019-04-16T08:18:28.683Z,2047.50
2019-04-16T08:19:36.856Z,2064.38
2019-04-16T08:20:29.720Z,2154.38
2019-04-16T08:21:28.653Z,2120.62
2019-04-16T08:22:28.794Z,2148.75
2019-04-16T08:23:28.644Z,2148.75
2019-04-16T08:24:28.612Z,2216.25
2019-04-16T08:25:33.665Z,2171.25
2019-04-16T08:26:29.592Z,2137.50
2019-04-16T08:27:28.574Z,2188.12
2019-04-16T08:28:28.562Z,2227.50
2019-04-16T08:29:28.561Z,2221.88
2019-04-16T08:30:31.521Z,2216.25
2019-04-16T08:31:29.533Z,2238.75
2019-04-16T08:32:28.534Z,2210.62
2019-04-16T08:33:29.300Z,2176.88
2019-04-16T08:34:28.567Z,2233.12
2019-04-16T08:35:28.487Z,2272.50
2019-04-16T08:36:28.515Z,2272.50
2019-04-16T08:37:28.478Z,2317.50
2019-04-16T08:38:28.464Z,2379.38
2019-04-16T08:39:28.508Z,2368.12
2019-04-16T08:40:28.445Z,2593.12
2019-04-16T08:41:28.426Z,2649.38
2019-04-16T08:42:30.836Z,2261.25
2019-04-16T08:43:29.962Z,1681.88
2019-04-16T08:44:28.505Z,1546.88
2019-04-16T08:45:28.387Z,2019.38
2019-04-16T08:46:28.514Z,2598.75
2019-04-16T08:47:28.356Z,2716.88
2019-04-16T08:48:28.361Z,2548.12
2019-04-16T08:49:28.336Z,2491.88
2019-04-16T08:50:28.386Z,2446.88
2019-04-16T08:51:30.573Z,2565.00
2019-04-16T08:52:28.309Z,2649.38
2019-04-16T08:53:28.311Z,2520.00
2019-04-16T08:54:28.296Z,2531.25
2019-04-16T08:55:28.362Z,2677.50
2019-04-16T08:56:28.263Z,2441.25
2019-04-16T08:57:31.796Z,2368.12
2019-04-16T08:58:28.319Z,2739.38
2019-04-16T08:59:28.252Z,2576.25
2019-04-16T09:00:28.231Z,2587.50
2019-04-16T09:01:28.244Z,2570.62
2019-04-16T09:02:28.201Z,2565.00
2019-04-16T09:03:30.028Z,2638.12
2019-04-16T09:04:28.241Z,2604.38
2019-04-16T09:05:28.161Z,2525.62
2019-04-16T09:06:28.212Z,2610.00
2019-04-16T09:07:28.154Z,2733.75
2019-04-16T09:08:28.144Z,2694.38
2019-04-16T09:09:28.126Z,2638.12
2019-04-16T09:10:30.857Z,2632.50
2019-04-16T09:11:28.562Z,2565.00
2019-04-16T09:12:28.177Z,2666.25
2019-04-16T09:13:28.074Z,2818.12
2019-04-16T09:14:28.094Z,2823.75
2019-04-16T09:15:28.064Z,2694.38
2019-04-16T09:16:28.113Z,2626.88
2019-04-16T09:17:28.044Z,2604.38
2019-04-16T09:18:28.039Z,2722.50
2019-04-16T09:19:28.023Z,2936.25
2019-04-16T09:20:28.007Z,3003.75
2019-04-16T09:21:28.298Z,3009.38
2019-04-16T09:22:28.036Z,2880.00
2019-04-16T09:23:27.966Z,2790.00
2019-04-16T09:24:27.970Z,2829.38
2019-04-16T09:25:27.960Z,2829.38
2019-04-16T09:26:27.997Z,2863.12
2019-04-16T09:27:30.055Z,2953.12
2019-04-16T09:28:31.084Z,3020.62
2019-04-16T09:29:27.907Z,2975.62
2019-04-16T09:30:27.896Z,2970.00
2019-04-16T09:31:27.958Z,3003.75
2019-04-16T09:32:28.561Z,3031.88
2019-04-16T09:33:30.390Z,3031.88
2019-04-16T09:34:28.873Z,3003.75
2019-04-16T09:35:27.849Z,3043.12
2019-04-16T09:36:27.890Z,3082.50
2019-04-16T09:37:28.697Z,3065.62
2019-04-16T09:38:27.826Z,3161.25
2019-04-16T09:39:27.808Z,3060.00
2019-04-16T09:40:27.851Z,2992.50
2019-04-16T09:41:27.830Z,2986.88
2019-04-16T09:42:27.772Z,3105.00
2019-04-16T09:43:27.783Z,3133.12
2019-04-16T09:44:31.463Z,3031.88
2019-04-16T09:45:28.739Z,3093.75
2019-04-16T09:46:50.020Z,3054.38
2019-04-16T09:47:32.205Z,3031.88
2019-04-16T09:48:27.762Z,3172.50
2019-04-16T09:49:27.692Z,3206.25
2019-04-16T09:50:27.683Z,3211.88
2019-04-16T09:51:27.675Z,3211.88
2019-04-16T09:52:27.678Z,3178.12
2019-04-16T09:53:34.171Z,3290.62
2019-04-16T09:54:28.639Z,3290.62
2019-04-16T09:55:27.625Z,3256.88
2019-04-16T09:56:29.373Z,3251.25
2019-04-16T09:57:30.903Z,3043.12
2019-04-16T09:58:27.656Z,2998.12
2019-04-16T09:59:27.721Z,2981.25
2019-04-16T10:00:27.566Z,2975.62
2019-04-16T10:01:27.608Z,2941.88
2019-04-16T10:02:27.546Z,3048.75
2019-04-16T10:03:28.495Z,3217.50
2019-04-16T10:04:27.527Z,3375.00
2019-04-16T10:05:29.586Z,3493.12
2019-04-16T10:06:27.568Z,3363.75
2019-04-16T10:07:27.511Z,3251.25
2019-04-16T10:08:29.399Z,3318.75
2019-04-16T10:09:27.494Z,3391.88
2019-04-16T10:10:28.294Z,3245.62
2019-04-16T10:11:27.478Z,3273.75
2019-04-16T10:12:27.524Z,3346.88
2019-04-16T10:13:31.801Z,3358.12
2019-04-16T10:14:28.439Z,3487.50
2019-04-16T10:15:27.453Z,3436.88
2019-04-16T10:16:27.410Z,3341.25
2019-04-16T10:17:27.416Z,3504.38
2019-04-16T10:18:27.455Z,3481.88
2019-04-16T10:19:27.362Z,3318.75
2019-04-16T10:20:27.374Z,3296.25
2019-04-16T10:21:29.109Z,3470.62
2019-04-16T10:22:27.347Z,3555.00
2019-04-16T10:23:27.387Z,3526.88
2019-04-16T10:24:27.317Z,3521.25
2019-04-16T10:25:27.311Z,3645.00
2019-04-16T10:26:27.309Z,3465.00
2019-04-16T10:27:31.218Z,3279.38
2019-04-16T10:28:28.376Z,3436.88
2019-04-16T10:29:27.322Z,3594.38
2019-04-16T10:30:29.930Z,3594.38
2019-04-16T10:31:27.263Z,3526.88
2019-04-16T10:32:27.261Z,3420.00
2019-04-16T10:33:27.221Z,3493.12
2019-04-16T10:34:27.281Z,3611.25
2019-04-16T10:35:27.198Z,3616.88
2019-04-16T10:36:27.186Z,3526.88
2019-04-16T10:37:27.180Z,3425.62
2019-04-16T10:38:27.169Z,3538.12
2019-04-16T10:39:27.187Z,3594.38
2019-04-16T10:40:27.232Z,3476.25
2019-04-16T10:41:27.138Z,3408.75
2019-04-16T10:42:27.119Z,3431.25
2019-04-16T10:43:27.121Z,3431.25
2019-04-16T10:44:27.110Z,3470.62
2019-04-16T10:45:27.103Z,3594.38
2019-04-16T10:46:27.147Z,3431.25
2019-04-16T10:47:27.073Z,3459.38
2019-04-16T10:48:27.068Z,3583.12
2019-04-16T10:49:27.077Z,3577.50
2019-04-16T10:50:27.034Z,3526.88
2019-04-16T10:51:27.091Z,3555.00
2019-04-16T10:52:27.012Z,3543.75
2019-04-16T10:53:27.014Z,3521.25
2019-04-16T10:54:27.016Z,3583.12
2019-04-16T10:55:27.033Z,3571.88
2019-04-16T10:56:27.052Z,3549.38
2019-04-16T10:57:27.005Z,3543.75
2019-04-16T10:58:26.943Z,3510.00
2019-04-16T10:59:26.957Z,3436.88
2019-04-16T11:00:27.009Z,3493.12
2019-04-16T11:01:30.505Z,3600.00
2019-04-16T11:02:28.814Z,3661.88
2019-04-16T11:03:28.665Z,3549.38
2019-04-16T11:04:26.916Z,3448.12
2019-04-16T11:05:26.923Z,3583.12
2019-04-16T11:06:26.946Z,3521.25
2019-04-16T11:07:26.862Z,3380.62
2019-04-16T11:08:26.855Z,3526.88
2019-04-16T11:09:26.848Z,3633.75
2019-04-16T11:10:26.860Z,3616.88
2019-04-16T11:11:26.828Z,3645.00
2019-04-16T11:12:26.889Z,3583.12
2019-04-16T11:13:26.800Z,3560.62
2019-04-16T11:14:26.784Z,3577.50
2019-04-16T11:15:26.779Z,3678.75
2019-04-16T11:16:26.988Z,3650.62
2019-04-16T11:17:26.757Z,3678.75
2019-04-16T11:18:26.795Z,3706.88
2019-04-16T11:19:26.739Z,3633.75
2019-04-16T11:20:26.778Z,3656.25
2019-04-16T11:21:26.771Z,3706.88
2019-04-16T11:22:26.750Z,3678.75
2019-04-16T11:23:26.688Z,3757.50
2019-04-16T11:24:26.696Z,3678.75
2019-04-16T11:25:26.672Z,3605.62
2019-04-16T11:26:26.653Z,3690.00
2019-04-16T11:27:26.716Z,3712.50
2019-04-16T11:28:26.649Z,3690.00
2019-04-16T11:29:26.625Z,3712.50
2019-04-16T11:30:26.646Z,3661.88
2019-04-16T11:31:26.604Z,3723.75
2019-04-16T11:32:26.707Z,3611.25
2019-04-16T11:33:27.670Z,3628.12
2019-04-16T11:34:26.589Z,3667.50
2019-04-16T11:35:26.562Z,3538.12
2019-04-16T11:36:30.608Z,3436.88
2019-04-16T11:37:27.648Z,3594.38
2019-04-16T11:38:26.531Z,3706.88
2019-04-16T11:39:26.562Z,3746.25
2019-04-16T11:40:26.518Z,3661.88
2019-04-16T11:41:26.498Z,3718.12
2019-04-16T11:42:26.500Z,3690.00
2019-04-16T11:43:26.589Z,3695.62
2019-04-16T11:44:26.474Z,3695.62
2019-04-16T11:45:26.463Z,3690.00
2019-04-16T11:46:26.453Z,3718.12
2019-04-16T11:47:28.113Z,3864.38
2019-04-16T11:48:26.433Z,3836.25
2019-04-16T11:49:26.481Z,3628.12
2019-04-16T11:50:26.438Z,3543.75
2019-04-16T11:51:26.422Z,3735.00
2019-04-16T11:52:26.404Z,3768.75
2019-04-16T11:53:26.445Z,3768.75
2019-04-16T11:54:26.389Z,3690.00
2019-04-16T11:55:26.353Z,3628.12
2019-04-16T11:56:26.335Z,3706.88
2019-04-16T11:57:26.376Z,3740.62
2019-04-16T11:58:26.407Z,3639.38
2019-04-16T11:59:26.316Z,3583.12
2019-04-16T12:00:26.339Z,3633.75
2019-04-16T12:01:26.293Z,3774.38
2019-04-16T12:02:26.361Z,3740.62
2019-04-16T12:03:26.286Z,3706.88
2019-04-16T12:04:26.258Z,3538.12
2019-04-16T12:05:26.259Z,3538.12
2019-04-16T12:06:28.411Z,3577.50
2019-04-16T12:07:26.252Z,3498.75
2019-04-16T12:08:26.245Z,3622.50
2019-04-16T12:09:26.212Z,3639.38
2019-04-16T12:10:26.263Z,3521.25
2019-04-16T12:11:26.229Z,3397.50
2019-04-16T12:12:26.198Z,3375.00
2019-04-16T12:13:26.170Z,3403.12
2019-04-16T12:14:30.998Z,3510.00
2019-04-16T12:15:27.160Z,3526.88
2019-04-16T12:16:26.231Z,3543.75
2019-04-16T12:17:26.174Z,3448.12
2019-04-16T12:18:26.157Z,3549.38
2019-04-16T12:19:26.161Z,3555.00
2019-04-16T12:20:26.152Z,3510.00
2019-04-16T12:21:26.192Z,3583.12
2019-04-16T12:22:26.155Z,3549.38
2019-04-16T12:23:26.107Z,3465.00
2019-04-16T12:24:26.059Z,3487.50
2019-04-16T12:25:26.607Z,3498.75
2019-04-16T12:26:26.069Z,3555.00
2019-04-16T12:27:26.074Z,3616.88
2019-04-16T12:28:26.004Z,3521.25
2019-04-16T12:29:33.044Z,3414.38
2019-04-16T12:30:25.990Z,3510.00
2019-04-16T12:31:26.030Z,3555.00
2019-04-16T12:32:27.044Z,3538.12
2019-04-16T12:33:25.999Z,3481.88
2019-04-16T12:34:25.964Z,3526.88
2019-04-16T12:35:25.969Z,3600.00